Millville, Ohio
Current Conditions -  °F | °C
As of 2:53 PM on Friday 28 Nov 2014 (Local Time) from KHAO Reporting Station
Clear Clear  
Wind Chill: 30°   Ceiling: Unl
Heat Index: 36°   Visibility: 10mi
Dew Point: 16°   Wind: 7mph
Humidity: 44%   Direction: 200°SSW
Pressure: 30.26"   Gusts: NA
Location:  39.4158°N, 84.6488°W
Report Text: KHAO 281953Z AUTO 20006KT 10SM CLR 02/M09 A3026 RMK AO2 SLP252 T00221089
Loading
Personal Weather Stations






























Interactive Weather Map New forecast layout! Learn more

10-Day Weather Forecast

Advertisements
Track Severe Weather on mobile